Time;durP1;ratioP1;P1;durP2;ratioP2;P2;SDS_P1;SDS_P2;PMS_P1;PMS_P2;Temp;Humidity;BMP_temperature;BMP_pressure;BME280_temperature;BME280_humidity;BME280_pressure;Samples;Min_cycle;Max_cycle;Signal;HPM_P1;HPM_P2
2021/06/24 00:00:53;;;;;;;15.68;5.35;;;;;;;;;;4388356;32;20255;-59
2021/06/24 00:03:19;;;;;;;15.57;5.78;;;;;;;;;;4388323;32;20287;-59
2021/06/24 00:05:46;;;;;;;18.85;5.03;;;;;;;;;;4388455;32;20352;-58
2021/06/24 00:08:12;;;;;;;18.83;5.37;;;;;;;;;;4388362;32;20251;-58
2021/06/24 00:10:39;;;;;;;13.43;4.87;;;;;;;;;;4388462;32;20248;-58
2021/06/24 00:13:05;;;;;;;14.70;6.05;;;;;;;;;;4388359;32;20294;-58
2021/06/24 00:15:32;;;;;;;13.18;5.90;;;;;;;;;;4388441;32;20798;-59
2021/06/24 00:17:58;;;;;;;17.90;5.68;;;;;;;;;;4388329;32;20237;-58
2021/06/24 00:20:24;;;;;;;18.15;6.20;;;;;;;;;;4374909;32;20289;-57
2021/06/24 00:22:50;;;;;;;12.50;5.20;;;;;;;;;;4388415;32;20244;-58
2021/06/24 00:25:16;;;;;;;12.07;5.07;;;;;;;;;;4388371;32;20317;-57
2021/06/24 00:27:41;;;;;;;13.50;5.57;;;;;;;;;;4388030;32;20252;-58
2021/06/24 00:30:07;;;;;;;21.40;5.65;;;;;;;;;;4374612;32;20666;-58
2021/06/24 00:32:33;;;;;;;15.65;6.18;;;;;;;;;;4388049;32;20303;-58
2021/06/24 00:35:01;;;;;;;17.77;6.00;;;;;;;;;;4388133;32;20281;-58
2021/06/24 00:37:29;;;;;;;21.67;6.22;;;;;;;;;;4388269;32;20655;-58
2021/06/24 00:39:56;;;;;;;15.25;5.93;;;;;;;;;;4388200;32;20311;-58
2021/06/24 00:42:24;;;;;;;18.02;5.87;;;;;;;;;;4387979;32;20642;-59
2021/06/24 00:44:49;;;;;;;18.33;5.80;;;;;;;;;;4388146;32;20194;-59
2021/06/24 00:47:15;;;;;;;14.68;5.95;;;;;;;;;;4387956;32;20335;-58
2021/06/24 00:49:41;;;;;;;16.77;5.40;;;;;;;;;;4387894;32;20336;-59
2021/06/24 00:52:07;;;;;;;15.93;5.30;;;;;;;;;;4387726;32;20601;-59
2021/06/24 00:54:33;;;;;;;18.65;6.07;;;;;;;;;;4387703;32;20214;-59
2021/06/24 00:56:59;;;;;;;11.40;4.65;;;;;;;;;;4387734;32;20229;-58
2021/06/24 00:59:25;;;;;;;17.30;5.70;;;;;;;;;;4387778;32;21080;-58
2021/06/24 01:01:51;;;;;;;19.83;6.35;;;;;;;;;;4388211;32;20511;-58
2021/06/24 01:04:23;;;;;;;14.98;6.30;;;;;;;;;;4387864;32;20206;-58
2021/06/24 01:06:50;;;;;;;13.98;4.90;;;;;;;;;;4388026;32;20209;-58
2021/06/24 01:09:16;;;;;;;13.90;5.78;;;;;;;;;;4388029;32;20313;-58
2021/06/24 01:11:42;;;;;;;11.77;4.85;;;;;;;;;;4390686;32;20394;-58
2021/06/24 01:14:11;;;;;;;19.67;5.43;;;;;;;;;;4390939;32;20226;-58
2021/06/24 01:16:38;;;;;;;13.65;5.12;;;;;;;;;;4390770;32;20306;-58
2021/06/24 01:19:04;;;;;;;16.23;5.85;;;;;;;;;;4390443;32;20353;-58
2021/06/24 01:21:30;;;;;;;11.85;6.10;;;;;;;;;;4390322;32;20325;-58
2021/06/24 01:23:56;;;;;;;17.25;6.15;;;;;;;;;;4390774;32;20266;-58
2021/06/24 01:26:22;;;;;;;12.18;4.90;;;;;;;;;;4390291;32;20653;-58
2021/06/24 01:28:47;;;;;;;18.08;5.85;;;;;;;;;;4390006;32;20292;-57
2021/06/24 01:31:14;;;;;;;15.20;4.70;;;;;;;;;;4390450;32;20222;-58
2021/06/24 01:33:40;;;;;;;12.82;5.93;;;;;;;;;;4390223;32;20593;-58
2021/06/24 01:36:06;;;;;;;9.27;5.65;;;;;;;;;;4390473;32;20324;-59
2021/06/24 01:38:32;;;;;;;11.57;4.62;;;;;;;;;;4390211;32;20267;-58
2021/06/24 01:40:58;;;;;;;14.30;5.82;;;;;;;;;;4390333;32;20285;-58
2021/06/24 01:43:25;;;;;;;16.70;5.07;;;;;;;;;;4390412;32;20371;-58
2021/06/24 01:45:53;;;;;;;19.48;5.97;;;;;;;;;;4390484;32;20315;-58
2021/06/24 01:48:20;;;;;;;17.67;4.18;;;;;;;;;;4390215;32;20620;-58
2021/06/24 01:50:47;;;;;;;22.90;5.35;;;;;;;;;;4390088;32;20866;-58
2021/06/24 01:53:12;;;;;;;17.12;7.72;;;;;;;;;;4389930;32;20218;-58
2021/06/24 01:55:40;;;;;;;22.13;6.30;;;;;;;;;;4390081;32;20633;-59
2021/06/24 01:58:07;;;;;;;17.60;7.43;;;;;;;;;;4390208;32;20331;-58
2021/06/24 02:00:32;;;;;;;13.65;6.37;;;;;;;;;;4376432;32;20589;-59
2021/06/24 02:02:58;;;;;;;22.23;7.78;;;;;;;;;;4390080;32;20230;-59
2021/06/24 02:05:24;;;;;;;14.35;6.43;;;;;;;;;;4390198;32;20758;-59
2021/06/24 02:07:50;;;;;;;15.73;5.85;;;;;;;;;;4389967;32;20233;-58
2021/06/24 02:10:16;;;;;;;18.15;5.57;;;;;;;;;;4389958;32;20811;-58
2021/06/24 02:12:42;;;;;;;31.62;7.03;;;;;;;;;;4389759;32;20248;-59
2021/06/24 02:15:11;;;;;;;14.23;7.20;;;;;;;;;;4389346;32;20340;-59
2021/06/24 02:17:37;;;;;;;13.45;6.75;;;;;;;;;;4389573;32;20593;-58
2021/06/24 02:20:05;;;;;;;14.57;6.00;;;;;;;;;;4389477;32;20282;-59
2021/06/24 02:22:30;;;;;;;15.38;5.97;;;;;;;;;;4389203;32;20825;-60
2021/06/24 02:24:56;;;;;;;21.70;8.20;;;;;;;;;;4389659;32;20300;-58
2021/06/24 02:27:21;;;;;;;20.88;6.75;;;;;;;;;;4389512;32;20289;-58
2021/06/24 02:29:47;;;;;;;15.38;6.40;;;;;;;;;;4375608;32;20245;-58
2021/06/24 02:32:13;;;;;;;11.35;6.72;;;;;;;;;;4389616;32;20226;-58
2021/06/24 02:34:41;;;;;;;12.43;4.90;;;;;;;;;;4375783;32;20308;-58
2021/06/24 02:37:06;;;;;;;17.27;6.75;;;;;;;;;;4389641;32;20697;-58
2021/06/24 02:39:31;;;;;;;11.15;5.87;;;;;;;;;;4389689;32;20237;-59
2021/06/24 02:41:59;;;;;;;20.70;7.22;;;;;;;;;;4375889;32;20680;-59
2021/06/24 02:44:25;;;;;;;21.83;6.35;;;;;;;;;;4389649;32;20292;-59
2021/06/24 02:46:50;;;;;;;10.43;4.87;;;;;;;;;;4389445;32;20332;-58
2021/06/24 02:49:16;;;;;;;12.75;5.57;;;;;;;;;;4389334;32;20248;-58
2021/06/24 02:51:41;;;;;;;16.50;6.53;;;;;;;;;;4389279;32;20266;-58
2021/06/24 02:54:07;;;;;;;11.40;5.53;;;;;;;;;;4375600;32;20236;-58
2021/06/24 02:56:34;;;;;;;15.00;5.45;;;;;;;;;;4389123;32;20300;-58
2021/06/24 02:58:59;;;;;;;15.00;5.90;;;;;;;;;;4389333;32;20214;-58
2021/06/24 03:01:25;;;;;;;16.52;6.85;;;;;;;;;;4375596;32;20348;-58
2021/06/24 03:03:50;;;;;;;18.77;6.10;;;;;;;;;;4375219;32;20359;-57
2021/06/24 03:06:16;;;;;;;10.57;5.00;;;;;;;;;;4375337;32;20394;-58
2021/06/24 03:08:41;;;;;;;20.92;7.22;;;;;;;;;;4388952;32;20230;-58
2021/06/24 03:11:07;;;;;;;22.27;6.57;;;;;;;;;;4389120;32;20269;-59
2021/06/24 03:13:32;;;;;;;18.60;7.30;;;;;;;;;;4389036;32;20205;-58
2021/06/24 03:15:58;;;;;;;13.55;5.30;;;;;;;;;;4388814;32;20782;-58
2021/06/24 03:18:23;;;;;;;14.60;6.00;;;;;;;;;;4375003;32;20305;-57
2021/06/24 03:20:49;;;;;;;12.95;5.95;;;;;;;;;;4388812;32;20680;-58
2021/06/24 03:23:14;;;;;;;17.30;7.20;;;;;;;;;;4388915;32;20346;-58
2021/06/24 03:25:40;;;;;;;13.90;7.05;;;;;;;;;;4375231;32;20390;-58
2021/06/24 03:28:05;;;;;;;24.45;7.43;;;;;;;;;;4388989;32;20308;-58
2021/06/24 03:30:31;;;;;;;20.98;6.65;;;;;;;;;;4375441;32;20218;-58
2021/06/24 03:32:56;;;;;;;17.60;6.68;;;;;;;;;;4388413;32;20229;-58
2021/06/24 03:35:21;;;;;;;13.18;6.60;;;;;;;;;;4374939;32;20264;-58
2021/06/24 03:37:47;;;;;;;18.60;7.37;;;;;;;;;;4388503;32;20218;-58
2021/06/24 03:40:16;;;;;;;15.23;7.12;;;;;;;;;;4388145;32;20319;-58
2021/06/24 03:42:42;;;;;;;22.87;6.87;;;;;;;;;;4388693;32;20222;-57
2021/06/24 03:45:08;;;;;;;19.65;7.30;;;;;;;;;;4388334;32;20311;-58
2021/06/24 03:47:34;;;;;;;12.40;8.18;;;;;;;;;;4388160;32;20343;-58
2021/06/24 03:49:59;;;;;;;15.02;7.37;;;;;;;;;;4388368;32;20268;-58
2021/06/24 03:52:25;;;;;;;17.73;7.32;;;;;;;;;;4388051;32;20300;-58
2021/06/24 03:54:50;;;;;;;12.25;7.30;;;;;;;;;;4388131;32;20344;-58
2021/06/24 03:57:16;;;;;;;29.45;9.10;;;;;;;;;;4388149;32;20257;-58
2021/06/24 03:59:41;;;;;;;15.60;7.68;;;;;;;;;;4388064;32;20644;-58
2021/06/24 04:02:07;;;;;;;18.98;8.35;;;;;;;;;;4388356;32;20272;-58
2021/06/24 04:04:32;;;;;;;29.90;12.55;;;;;;;;;;4387966;32;20232;-58
2021/06/24 04:06:58;;;;;;;25.75;12.40;;;;;;;;;;4388006;32;20209;-58
2021/06/24 04:09:23;;;;;;;33.20;12.40;;;;;;;;;;4387900;32;20210;-58
2021/06/24 04:11:49;;;;;;;22.35;9.82;;;;;;;;;;4387918;32;20339;-57
2021/06/24 04:14:14;;;;;;;25.60;11.32;;;;;;;;;;4388314;32;20297;-58
2021/06/24 04:16:40;;;;;;;20.60;10.27;;;;;;;;;;4388303;32;20523;-57
2021/06/24 04:19:05;;;;;;;23.45;8.82;;;;;;;;;;4388146;32;20381;-58
2021/06/24 04:21:31;;;;;;;14.98;6.65;;;;;;;;;;4388214;32;20645;-58
2021/06/24 04:23:56;;;;;;;20.12;7.07;;;;;;;;;;4388360;32;20248;-58
2021/06/24 04:26:22;;;;;;;20.25;8.52;;;;;;;;;;4388121;32;20269;-58
2021/06/24 04:28:49;;;;;;;12.70;6.30;;;;;;;;;;4387789;32;20602;-58
2021/06/24 04:31:14;;;;;;;10.27;6.10;;;;;;;;;;4388372;32;20284;-58
2021/06/24 04:33:40;;;;;;;12.05;7.68;;;;;;;;;;4387823;32;20677;-57
2021/06/24 04:36:05;;;;;;;10.07;6.03;;;;;;;;;;4387809;32;20340;-57
2021/06/24 04:38:31;;;;;;;19.27;6.20;;;;;;;;;;4387679;32;20299;-57
2021/06/24 04:40:56;;;;;;;13.18;6.30;;;;;;;;;;4387471;32;20280;-57
2021/06/24 04:43:22;;;;;;;15.68;7.93;;;;;;;;;;4386939;32;20288;-57
2021/06/24 04:45:47;;;;;;;16.35;7.43;;;;;;;;;;4390435;32;20629;-60
2021/06/24 04:48:13;;;;;;;23.40;8.10;;;;;;;;;;4390619;32;20209;-58
2021/06/24 04:50:38;;;;;;;28.05;9.38;;;;;;;;;;4390405;32;20273;-58
2021/06/24 04:53:04;;;;;;;22.83;9.05;;;;;;;;;;4390548;32;20304;-59
2021/06/24 04:55:39;;;;;;;19.42;8.50;;;;;;;;;;4390186;32;20327;-59
2021/06/24 04:58:06;;;;;;;21.55;7.82;;;;;;;;;;4376609;32;20273;-59
2021/06/24 05:00:34;;;;;;;28.00;9.68;;;;;;;;;;4390335;32;20206;-59
2021/06/24 05:03:00;;;;;;;20.30;8.43;;;;;;;;;;4390115;32;20250;-59
2021/06/24 05:05:27;;;;;;;18.02;7.50;;;;;;;;;;4389544;32;20782;-59
2021/06/24 05:07:52;;;;;;;26.20;9.13;;;;;;;;;;4389655;32;20291;-59
2021/06/24 05:10:18;;;;;;;24.77;10.82;;;;;;;;;;4375506;32;20225;-59
2021/06/24 05:12:43;;;;;;;20.02;10.82;;;;;;;;;;4389392;32;20229;-58
2021/06/24 05:15:10;;;;;;;29.55;12.32;;;;;;;;;;4388951;32;20350;-58
2021/06/24 05:17:38;;;;;;;22.83;11.43;;;;;;;;;;4388059;32;20324;-59
2021/06/24 05:20:05;;;;;;;22.02;9.40;;;;;;;;;;4388125;32;20235;-58
2021/06/24 05:22:31;;;;;;;19.48;9.20;;;;;;;;;;4387415;32;20339;-58
2021/06/24 05:24:58;;;;;;;26.00;10.75;;;;;;;;;;4373500;32;20320;-60
2021/06/24 05:27:23;;;;;;;21.48;9.95;;;;;;;;;;4386971;32;20230;-59
2021/06/24 05:29:49;;;;;;;26.10;9.65;;;;;;;;;;4387673;32;20524;-58
2021/06/24 05:32:17;;;;;;;24.08;9.50;;;;;;;;;;4373940;32;20339;-58
2021/06/24 05:34:43;;;;;;;19.45;9.82;;;;;;;;;;4387283;32;20243;-58
2021/06/24 05:37:08;;;;;;;21.67;9.82;;;;;;;;;;4388200;32;20217;-59
2021/06/24 05:39:34;;;;;;;13.15;7.62;;;;;;;;;;4375305;32;20369;-58
2021/06/24 05:42:00;;;;;;;20.92;9.38;;;;;;;;;;4389130;32;20277;-58
2021/06/24 05:44:26;;;;;;;24.67;8.57;;;;;;;;;;4388879;32;20692;-58
2021/06/24 05:46:53;;;;;;;14.10;7.03;;;;;;;;;;4388902;32;20283;-58
2021/06/24 05:49:18;;;;;;;15.32;8.00;;;;;;;;;;4388244;32;20221;-58
2021/06/24 05:51:44;;;;;;;16.48;6.95;;;;;;;;;;4388507;32;20657;-58
2021/06/24 05:54:09;;;;;;;11.88;8.00;;;;;;;;;;4388667;32;20206;-58
2021/06/24 05:56:35;;;;;;;21.65;8.68;;;;;;;;;;4388689;32;20327;-58
2021/06/24 05:59:03;;;;;;;24.65;7.53;;;;;;;;;;4388848;32;20825;-60
2021/06/24 06:01:29;;;;;;;23.40;8.50;;;;;;;;;;4387362;32;20229;-58
2021/06/24 06:03:54;;;;;;;21.50;8.20;;;;;;;;;;4387560;32;20358;-58
2021/06/24 06:06:20;;;;;;;17.42;8.27;;;;;;;;;;4362540;32;20300;-59
2021/06/24 06:08:46;;;;;;;15.07;8.23;;;;;;;;;;4387695;32;20317;-59
2021/06/24 06:11:12;;;;;;;15.48;8.27;;;;;;;;;;4388607;32;20343;-58
2021/06/24 06:13:38;;;;;;;23.83;8.68;;;;;;;;;;4374526;32;20727;-58
2021/06/24 06:16:04;;;;;;;14.85;8.30;;;;;;;;;;4388565;32;20308;-59
2021/06/24 06:18:29;;;;;;;16.35;8.88;;;;;;;;;;4388228;32;20221;-57
2021/06/24 06:20:56;;;;;;;16.10;9.05;;;;;;;;;;4388542;32;20308;-57
2021/06/24 06:23:24;;;;;;;17.87;8.00;;;;;;;;;;4374257;32;20295;-57
2021/06/24 06:25:50;;;;;;;26.83;8.85;;;;;;;;;;4388083;32;20205;-57
2021/06/24 06:28:18;;;;;;;16.37;8.65;;;;;;;;;;4387913;32;20320;-58
2021/06/24 06:30:46;;;;;;;22.70;8.82;;;;;;;;;;4388369;32;20328;-57
2021/06/24 06:33:11;;;;;;;15.43;8.30;;;;;;;;;;4374375;32;20642;-57
2021/06/24 06:35:37;;;;;;;21.12;9.80;;;;;;;;;;4388156;32;20307;-59
2021/06/24 06:38:04;;;;;;;19.12;9.77;;;;;;;;;;4388268;32;20300;-59
2021/06/24 06:40:30;;;;;;;16.80;8.65;;;;;;;;;;4374358;32;20274;-60
2021/06/24 06:42:55;;;;;;;17.17;8.05;;;;;;;;;;4387941;32;20293;-58
2021/06/24 06:45:22;;;;;;;14.85;8.55;;;;;;;;;;4374467;32;20395;-59
2021/06/24 06:47:48;;;;;;;25.37;8.30;;;;;;;;;;4388051;32;20225;-58
2021/06/24 06:50:15;;;;;;;20.10;9.68;;;;;;;;;;4387780;32;20269;-60
2021/06/24 06:52:41;;;;;;;22.10;9.23;;;;;;;;;;4374896;32;20222;-58
2021/06/24 06:55:07;;;;;;;16.60;8.63;;;;;;;;;;4387808;32;20304;-58
2021/06/24 06:57:33;;;;;;;26.55;8.25;;;;;;;;;;4373196;32;20246;-57
2021/06/24 06:59:58;;;;;;;18.02;8.40;;;;;;;;;;4374166;32;20292;-57
2021/06/24 07:02:24;;;;;;;16.90;8.07;;;;;;;;;;4388299;32;20319;-60
2021/06/24 07:04:50;;;;;;;20.23;9.25;;;;;;;;;;4387869;32;20281;-58
2021/06/24 07:07:16;;;;;;;22.77;8.32;;;;;;;;;;4387399;32;20221;-58
2021/06/24 07:09:41;;;;;;;20.20;8.27;;;;;;;;;;4388028;32;20392;-59
2021/06/24 07:12:08;;;;;;;17.17;8.73;;;;;;;;;;4388113;32;20225;-58
2021/06/24 07:14:34;;;;;;;21.87;9.40;;;;;;;;;;4387734;32;20737;-60
2021/06/24 07:16:59;;;;;;;23.42;9.18;;;;;;;;;;4374622;32;20241;-61
2021/06/24 07:19:25;;;;;;;28.87;9.30;;;;;;;;;;4388438;32;20240;-59
2021/06/24 07:21:50;;;;;;;18.65;9.68;;;;;;;;;;4388704;32;20813;-58
2021/06/24 07:24:18;;;;;;;19.15;8.13;;;;;;;;;;4388553;32;20305;-58
2021/06/24 07:26:44;;;;;;;17.17;8.38;;;;;;;;;;4387663;32;20228;-57
2021/06/24 07:29:09;;;;;;;19.87;8.20;;;;;;;;;;4387903;32;20218;-57
2021/06/24 07:31:35;;;;;;;14.10;8.07;;;;;;;;;;4373983;32;20338;-58
2021/06/24 07:34:00;;;;;;;21.67;8.55;;;;;;;;;;4374008;32;20920;-58
2021/06/24 07:36:26;;;;;;;14.00;7.87;;;;;;;;;;4387178;32;20340;-59
2021/06/24 07:38:51;;;;;;;20.80;8.43;;;;;;;;;;4387579;32;20630;-58
2021/06/24 07:41:17;;;;;;;22.92;7.82;;;;;;;;;;4387795;32;20273;-58
2021/06/24 07:43:42;;;;;;;21.95;8.50;;;;;;;;;;4387434;32;20218;-58
2021/06/24 07:46:08;;;;;;;15.50;8.13;;;;;;;;;;4373756;32;20319;-58
2021/06/24 07:48:33;;;;;;;24.15;8.50;;;;;;;;;;4387701;32;20230;-59
2021/06/24 07:50:59;;;;;;;20.62;8.27;;;;;;;;;;4387776;32;20378;-58
2021/06/24 07:53:24;;;;;;;16.35;7.60;;;;;;;;;;4387558;32;20285;-58
2021/06/24 07:55:50;;;;;;;23.87;9.45;;;;;;;;;;4388180;32;20265;-58
2021/06/24 07:58:15;;;;;;;19.27;9.30;;;;;;;;;;4388203;32;20221;-58
2021/06/24 08:00:41;;;;;;;15.48;8.70;;;;;;;;;;4388096;32;20273;-59
2021/06/24 08:03:07;;;;;;;25.62;8.15;;;;;;;;;;4388262;32;20279;-57
2021/06/24 08:05:33;;;;;;;19.77;9.05;;;;;;;;;;4387841;32;20302;-58
2021/06/24 08:07:59;;;;;;;21.23;10.30;;;;;;;;;;4373837;32;20429;-59
2021/06/24 08:10:24;;;;;;;18.55;8.52;;;;;;;;;;4387595;32;20724;-59
2021/06/24 08:12:50;;;;;;;16.20;8.68;;;;;;;;;;4387941;32;20229;-58
2021/06/24 08:15:18;;;;;;;32.17;9.95;;;;;;;;;;4387170;32;20289;-59
2021/06/24 08:17:47;;;;;;;17.65;9.13;;;;;;;;;;4387254;32;20332;-58
2021/06/24 08:20:15;;;;;;;21.30;10.18;;;;;;;;;;4387467;32;20228;-58
2021/06/24 08:22:40;;;;;;;21.05;9.10;;;;;;;;;;4388331;32;20305;-58
2021/06/24 08:25:07;;;;;;;26.67;8.57;;;;;;;;;;4387708;32;20382;-59
2021/06/24 08:27:34;;;;;;;17.10;8.00;;;;;;;;;;4387463;32;20241;-58
2021/06/24 08:30:00;;;;;;;36.97;9.38;;;;;;;;;;4387046;32;20300;-58
2021/06/24 08:32:26;;;;;;;18.92;9.05;;;;;;;;;;4387632;32;20634;-58
2021/06/24 08:34:51;;;;;;;19.37;8.50;;;;;;;;;;4387601;32;20324;-57
2021/06/24 08:37:17;;;;;;;17.35;8.98;;;;;;;;;;4387458;32;20222;-59
2021/06/24 08:39:43;;;;;;;26.58;8.48;;;;;;;;;;4387471;32;20285;-57
2021/06/24 08:42:10;;;;;;;20.88;8.20;;;;;;;;;;4387847;32;20634;-58
2021/06/24 08:44:35;;;;;;;23.45;9.45;;;;;;;;;;4387703;32;20300;-58
2021/06/24 08:47:02;;;;;;;19.62;8.40;;;;;;;;;;4387748;32;20279;-57
2021/06/24 08:49:28;;;;;;;19.20;8.63;;;;;;;;;;4387527;32;20624;-57
2021/06/24 08:51:55;;;;;;;19.87;7.60;;;;;;;;;;4387778;32;20523;-57
2021/06/24 08:54:22;;;;;;;18.48;9.38;;;;;;;;;;4387466;32;20290;-57
2021/06/24 08:56:48;;;;;;;16.20;8.40;;;;;;;;;;4387684;32;20345;-58
2021/06/24 08:59:14;;;;;;;26.30;8.88;;;;;;;;;;4373328;32;20723;-58
2021/06/24 09:01:57;;;;;;;15.90;7.10;;;;;;;;;;4386020;32;20400;-59
2021/06/24 09:04:31;;;;;;;19.00;7.90;;;;;;;;;;4373162;32;20228;-59
2021/06/24 09:07:12;;;;;;;13.82;7.55;;;;;;;;;;4373441;32;20221;-58
2021/06/24 09:09:49;;;;;;;22.90;9.50;;;;;;;;;;4386678;32;20264;-58
2021/06/24 09:12:15;;;;;;;14.07;7.50;;;;;;;;;;4387069;32;20358;-58
2021/06/24 09:14:58;;;;;;;17.12;6.00;;;;;;;;;;4387400;32;20269;-59
2021/06/24 09:17:36;;;;;;;21.48;6.03;;;;;;;;;;4386410;32;20273;-58
2021/06/24 09:20:19;;;;;;;18.08;6.07;;;;;;;;;;4387075;32;20260;-59
2021/06/24 09:23:11;;;;;;;16.05;6.45;;;;;;;;;;4373245;32;20374;-57
2021/06/24 09:25:42;;;;;;;21.15;6.28;;;;;;;;;;4386998;32;20239;-57
2021/06/24 09:28:09;;;;;;;23.75;5.53;;;;;;;;;;4373561;32;20234;-57
2021/06/24 09:30:36;;;;;;;15.00;6.80;;;;;;;;;;4372366;32;20375;-57
2021/06/24 09:33:09;;;;;;;21.77;6.68;;;;;;;;;;4389161;32;20218;-57
2021/06/24 09:35:36;;;;;;;18.67;8.60;;;;;;;;;;4390170;32;20381;-57
2021/06/24 09:38:08;;;;;;;21.87;7.28;;;;;;;;;;4376436;32;20229;-58
2021/06/24 09:40:54;;;;;;;22.42;7.07;;;;;;;;;;4390311;32;20202;-58
2021/06/24 09:43:34;;;;;;;18.60;7.95;;;;;;;;;;4390183;32;20242;-58
2021/06/24 09:46:05;;;;;;;16.23;6.15;;;;;;;;;;4390012;32;20383;-59
2021/06/24 09:48:33;;;;;;;19.90;6.80;;;;;;;;;;4390012;32;20218;-59
2021/06/24 09:51:27;;;;;;;20.33;6.60;;;;;;;;;;4376681;32;20202;-58
2021/06/24 09:54:00;;;;;;;18.70;7.70;;;;;;;;;;4389928;32;20293;-58
2021/06/24 09:56:46;;;;;;;18.90;7.47;;;;;;;;;;4390396;32;20243;-58
2021/06/24 09:59:16;;;;;;;22.90;6.87;;;;;;;;;;4390184;32;20202;-58
2021/06/24 10:01:44;;;;;;;17.35;6.10;;;;;;;;;;4390307;32;20206;-58
2021/06/24 10:04:31;;;;;;;20.48;6.90;;;;;;;;;;4389826;32;20434;-59
2021/06/24 10:06:59;;;;;;;17.27;7.35;;;;;;;;;;4389820;32;20209;-59
2021/06/24 10:09:26;;;;;;;14.87;6.82;;;;;;;;;;4389471;32;20772;-59
2021/06/24 10:11:53;;;;;;;17.33;4.43;;;;;;;;;;4389907;32;20622;-60
2021/06/24 10:14:19;;;;;;;11.63;6.28;;;;;;;;;;4389469;32;20240;-59
2021/06/24 10:16:51;;;;;;;18.42;6.87;;;;;;;;;;4389718;32;20321;-59
2021/06/24 10:19:23;;;;;;;15.88;6.25;;;;;;;;;;4389708;32;20223;-59
2021/06/24 10:21:51;;;;;;;23.40;6.65;;;;;;;;;;4389676;32;20391;-59
2021/06/24 10:24:21;;;;;;;18.23;5.72;;;;;;;;;;4389256;32;20327;-59
2021/06/24 10:26:51;;;;;;;16.15;5.68;;;;;;;;;;4389500;32;20589;-59
2021/06/24 10:29:22;;;;;;;17.58;6.60;;;;;;;;;;4389566;32;20214;-59
2021/06/24 10:31:53;;;;;;;16.62;6.53;;;;;;;;;;4389254;32;20242;-59
2021/06/24 10:34:20;;;;;;;19.30;6.32;;;;;;;;;;4389612;32;20281;-58
2021/06/24 10:37:11;;;;;;;12.93;4.87;;;;;;;;;;4388610;32;20243;-58
2021/06/24 10:39:38;;;;;;;25.02;6.72;;;;;;;;;;4389630;32;20252;-59
2021/06/24 10:42:09;;;;;;;14.90;4.97;;;;;;;;;;4389608;32;20287;-58
2021/06/24 10:44:51;;;;;;;24.58;7.00;;;;;;;;;;4389853;32;20265;-57
2021/06/24 10:47:28;;;;;;;16.92;5.62;;;;;;;;;;4389575;32;20226;-57
2021/06/24 10:49:54;;;;;;;18.83;6.15;;;;;;;;;;4389434;32;20217;-58
2021/06/24 10:52:27;;;;;;;17.35;5.82;;;;;;;;;;4388721;32;20221;-59
2021/06/24 10:54:59;;;;;;;17.77;6.43;;;;;;;;;;4389353;32;20225;-59
2021/06/24 10:57:53;;;;;;;21.00;5.65;;;;;;;;;;4388973;32;20296;-59
2021/06/24 11:00:43;;;;;;;14.70;5.10;;;;;;;;;;4376244;32;20218;-59
2021/06/24 11:03:11;;;;;;;24.17;5.55;;;;;;;;;;4389122;32;20289;-59
2021/06/24 11:05:45;;;;;;;20.30;6.45;;;;;;;;;;4389123;32;20271;-60
2021/06/24 11:08:12;;;;;;;19.90;6.68;;;;;;;;;;4388764;32;20284;-58
2021/06/24 11:11:08;;;;;;;19.08;6.12;;;;;;;;;;4388611;32;20269;-58
2021/06/24 11:13:37;;;;;;;15.38;5.80;;;;;;;;;;4388182;32;20249;-58
2021/06/24 11:16:09;;;;;;;24.87;6.12;;;;;;;;;;4373369;32;20347;-58
2021/06/24 11:18:34;;;;;;;13.60;5.20;;;;;;;;;;4387997;32;21343;-58
2021/06/24 11:21:10;;;;;;;17.17;5.72;;;;;;;;;;4388918;32;20359;-59
2021/06/24 11:23:44;;;;;;;18.90;6.72;;;;;;;;;;4388834;32;20710;-59
2021/06/24 11:26:16;;;;;;;23.15;8.68;;;;;;;;;;4388351;32;20310;-58
2021/06/24 11:28:53;;;;;;;11.30;5.85;;;;;;;;;;4387588;32;20213;-58
2021/06/24 11:34:56;;;;;;;22.20;6.53;;;;;;;;;;4388772;32;20650;-57
2021/06/24 11:37:25;;;;;;;10.60;4.90;;;;;;;;;;4388095;32;20562;-58
2021/06/24 11:39:53;;;;;;;9.50;4.57;;;;;;;;;;4388734;32;20300;-59
2021/06/24 11:42:28;;;;;;;18.70;5.72;;;;;;;;;;4388418;32;20271;-58
2021/06/24 11:44:54;;;;;;;25.25;6.87;;;;;;;;;;4388557;32;20206;-57
2021/06/24 11:47:32;;;;;;;19.05;5.53;;;;;;;;;;4388247;32;20327;-58
2021/06/24 12:03:50;;;;;;;14.95;5.68;;;;;;;;;;4388326;32;20309;-57
2021/06/24 12:06:16;;;;;;;15.85;5.68;;;;;;;;;;4388244;32;20269;-57
2021/06/24 12:08:41;;;;;;;15.60;5.75;;;;;;;;;;4387749;32;20703;-58
2021/06/24 12:11:12;;;;;;;22.55;5.50;;;;;;;;;;4374557;32;20636;-59
2021/06/24 12:13:43;;;;;;;11.95;5.70;;;;;;;;;;4388125;32;20294;-59
2021/06/24 12:16:13;;;;;;;10.65;4.60;;;;;;;;;;4374370;32;20221;-58
2021/06/24 12:18:40;;;;;;;15.77;5.35;;;;;;;;;;4373749;32;20575;-59
2021/06/24 12:21:14;;;;;;;12.93;6.05;;;;;;;;;;4387702;32;20754;-59
2021/06/24 12:23:48;;;;;;;11.88;5.70;;;;;;;;;;4387580;32;20297;-59
2021/06/24 12:26:16;;;;;;;17.95;5.00;;;;;;;;;;4388179;32;20546;-59
2021/06/24 12:28:42;;;;;;;14.80;6.25;;;;;;;;;;4387839;32;20294;-58
2021/06/24 12:31:37;;;;;;;20.88;5.28;;;;;;;;;;4387737;32;20658;-59
2021/06/24 12:34:05;;;;;;;16.37;5.07;;;;;;;;;;4374673;32;20222;-59
2021/06/24 12:36:35;;;;;;;17.75;5.30;;;;;;;;;;4387732;32;20705;-59
2021/06/24 12:39:01;;;;;;;23.50;5.22;;;;;;;;;;4387930;32;20289;-58
2021/06/24 12:41:28;;;;;;;13.77;5.72;;;;;;;;;;4387683;32;20258;-58
2021/06/24 12:44:02;;;;;;;19.23;5.25;;;;;;;;;;4386681;32;20214;-58
2021/06/24 12:46:31;;;;;;;15.55;5.62;;;;;;;;;;4387776;32;20296;-59
2021/06/24 12:49:01;;;;;;;12.10;4.40;;;;;;;;;;4387634;32;20248;-59
2021/06/24 12:51:26;;;;;;;11.85;4.12;;;;;;;;;;4374037;32;20241;-59
2021/06/24 12:53:54;;;;;;;17.83;5.25;;;;;;;;;;4387929;32;20280;-59
2021/06/24 12:56:32;;;;;;;22.08;5.37;;;;;;;;;;4387974;32;20242;-58
2021/06/24 12:59:17;;;;;;;9.50;4.47;;;;;;;;;;4374076;32;20609;-58
2021/06/24 13:01:44;;;;;;;18.02;6.25;;;;;;;;;;4387493;32;20240;-57
2021/06/24 13:04:30;;;;;;;13.35;4.15;;;;;;;;;;4387554;32;20647;-59
2021/06/24 13:07:01;;;;;;;10.65;5.25;;;;;;;;;;4378243;32;20230;-58
2021/06/24 13:09:33;;;;;;;13.70;5.30;;;;;;;;;;4390481;32;20213;-58
2021/06/24 13:12:01;;;;;;;16.40;5.00;;;;;;;;;;4376678;32;20304;-58
2021/06/24 13:14:29;;;;;;;17.52;5.78;;;;;;;;;;4390416;32;20585;-58
2021/06/24 13:16:57;;;;;;;11.07;5.18;;;;;;;;;;4390399;32;20279;-58
2021/06/24 13:19:32;;;;;;;14.57;5.40;;;;;;;;;;4390298;32;20201;-58
2021/06/24 13:22:00;;;;;;;12.25;4.85;;;;;;;;;;4376480;32;20281;-58
2021/06/24 13:24:41;;;;;;;17.65;5.00;;;;;;;;;;4390059;32;20293;-59
2021/06/24 13:27:06;;;;;;;13.98;4.82;;;;;;;;;;4390399;32;20256;-58
2021/06/24 13:29:33;;;;;;;15.05;5.43;;;;;;;;;;4389963;32;20285;-58
2021/06/24 13:31:58;;;;;;;14.13;5.18;;;;;;;;;;4389729;32;20279;-59
2021/06/24 13:34:26;;;;;;;17.10;4.95;;;;;;;;;;4376360;32;20634;-59
2021/06/24 13:36:51;;;;;;;14.85;4.45;;;;;;;;;;4390198;32;20225;-58
2021/06/24 13:39:19;;;;;;;10.00;3.83;;;;;;;;;;4390196;32;20255;-58
2021/06/24 13:41:53;;;;;;;16.48;4.78;;;;;;;;;;4390114;32;20276;-58
2021/06/24 13:44:21;;;;;;;20.67;5.12;;;;;;;;;;4390159;32;20551;-58
2021/06/24 13:46:49;;;;;;;11.60;4.18;;;;;;;;;;4390156;32;20229;-57
2021/06/24 13:49:16;;;;;;;9.68;5.18;;;;;;;;;;4390070;32;20214;-58
2021/06/24 13:51:47;;;;;;;21.15;5.10;;;;;;;;;;4376170;32;20213;-58
2021/06/24 13:54:16;;;;;;;14.98;4.82;;;;;;;;;;4390207;32;20241;-57
2021/06/24 13:56:42;;;;;;;12.95;4.53;;;;;;;;;;4389846;32;20206;-58
2021/06/24 13:59:08;;;;;;;13.43;3.90;;;;;;;;;;4390008;32;20664;-58
2021/06/24 14:01:34;;;;;;;14.75;4.15;;;;;;;;;;4389796;32;20297;-58
2021/06/24 14:04:00;;;;;;;11.80;3.53;;;;;;;;;;4389710;32;20210;-59
2021/06/24 14:06:31;;;;;;;15.35;4.53;;;;;;;;;;4389873;32;20346;-58
2021/06/24 14:08:56;;;;;;;9.65;4.22;;;;;;;;;;4389774;32;20225;-58
2021/06/24 14:11:22;;;;;;;13.98;4.55;;;;;;;;;;4389705;32;20268;-58
2021/06/24 14:13:48;;;;;;;17.95;5.35;;;;;;;;;;4389584;32;20217;-58
2021/06/24 14:16:17;;;;;;;14.50;4.32;;;;;;;;;;4389589;32;20206;-59
2021/06/24 14:18:47;;;;;;;13.80;3.83;;;;;;;;;;4376215;32;20504;-59
2021/06/24 14:21:19;;;;;;;13.98;4.30;;;;;;;;;;4389864;32;20626;-59
2021/06/24 14:23:46;;;;;;;14.75;4.30;;;;;;;;;;4389636;32;20366;-59
2021/06/24 14:26:12;;;;;;;17.25;5.47;;;;;;;;;;4375860;32;20221;-58
2021/06/24 14:28:38;;;;;;;13.30;4.25;;;;;;;;;;4389074;32;20248;-58
2021/06/24 14:31:05;;;;;;;16.42;4.75;;;;;;;;;;4376082;32;20591;-58
2021/06/24 14:33:32;;;;;;;9.55;4.65;;;;;;;;;;4375935;32;20271;-59
2021/06/24 14:35:58;;;;;;;16.73;4.87;;;;;;;;;;4376086;32;20711;-58
2021/06/24 14:38:23;;;;;;;19.27;4.45;;;;;;;;;;4389464;32;20260;-59
2021/06/24 14:40:50;;;;;;;13.50;5.15;;;;;;;;;;4389570;32;20272;-59
2021/06/24 14:43:16;;;;;;;12.50;5.22;;;;;;;;;;4389524;32;20316;-58
2021/06/24 14:45:42;;;;;;;13.15;5.07;;;;;;;;;;4389662;32;20300;-60
2021/06/24 14:48:08;;;;;;;11.10;4.55;;;;;;;;;;4389192;32;20234;-58
2021/06/24 14:50:33;;;;;;;13.52;4.55;;;;;;;;;;4389071;32;20700;-59